Погода Кросно-Оджаньскена неделю

Любушское воеводство, Польша

16 - 22 июля
  • 16июля
    Сегодня
    +15°
    +27°
    Пасмурно, дождь
    ВремяПогодаТемператураВлажностьДавлениеВетер, м/сВероятность осадков
    02:00Облачно с прояснениями+21°C66 %755 мм3.7 м/с2 %
    05:00Практически безоблачно+19°C74 %754 мм2.8 м/с2 %
    08:00Пасмурно, дождь+22°C82 %755 мм2.8 м/с27 %
    11:00Пасмурно, дождь+22°C89 %756 мм2.4 м/с81 %
    14:00Пасмурно, дождь+22°C87 %756 мм2.3 м/с75 %
    17:00Небольшая облачность+25°C69 %755 мм3.0 м/с31 %
    20:00Практически безоблачно+24°C64 %755 мм2.2 м/с6 %
    23:00Практически безоблачно+20°C61 %757 мм3.8 м/с1 %
  • 17июля
    Среда
    +14°
    +25°
    Облачно с прояснениями
    ВремяПогодаТемператураВлажностьДавлениеВетер, м/сВероятность осадков
    02:00Ясно и безоблачно+18°C66 %758 мм2.8 м/с2 %
    05:00Ясно и безоблачно+16°C71 %759 мм2.7 м/с2 %
    08:00Облачно с прояснениями+20°C67 %760 мм2.8 м/с2 %
    11:00Облачно с прояснениями+23°C54 %761 мм4.4 м/с2 %
    14:00Облачно с прояснениями+25°C47 %761 мм5.5 м/с5 %
    17:00Небольшая облачность+25°C49 %761 мм4.8 м/с2 %
    20:00Практически безоблачно+23°C58 %761 мм2.3 м/с2 %
    23:00Небольшая облачность+18°C74 %763 мм1.9 м/с2 %
  • 18июля
    Четверг
    +16°
    +27°
    Ясно и безоблачно
    ВремяПогодаТемператураВлажностьДавлениеВетер, м/сВероятность осадков
    02:00Ясно и безоблачно+16°C86 %763 мм1.6 м/с2 %
    05:00Ясно и безоблачно+14°C89 %763 мм1.9 м/с2 %
    08:00Ясно и безоблачно+18°C78 %764 мм1.4 м/с2 %
    11:00Ясно и безоблачно+23°C58 %764 мм2.6 м/с2 %
    14:00Ясно и безоблачно+25°C47 %764 мм2.3 м/с5 %
    17:00Облачно с прояснениями+26°C44 %763 мм1.6 м/с5 %
    20:00Облачно с прояснениями+24°C61 %763 мм1.4 м/с2 %
    23:00Небольшая облачность+19°C73 %763 мм1.5 м/с2 %
  • 19июля
    Пятница
    +17°
    +28°
    Небольшая облачность
    ВремяПогодаТемператураВлажностьДавлениеВетер, м/сВероятность осадков
    02:00Облачно с прояснениями+19°C75 %763 мм1.8 м/с2 %
    05:00Ясно и безоблачно+17°C80 %763 мм1.9 м/с2 %
    08:00Ясно и безоблачно+21°C72 %763 мм0.5 м/с3 %
    11:00Практически безоблачно+26°C52 %763 мм0.3 м/с2 %
    14:00Небольшая облачность+28°C44 %762 мм1.3 м/с20 %
    17:00Небольшая облачность+28°C45 %761 мм1.7 м/с6 %
    20:00Ясно и безоблачно+25°C57 %761 мм1.4 м/с4 %
    23:00Облачно с прояснениями+21°C66 %761 мм2.8 м/с2 %
Мы используем cookies
Соглашаюсь